sensor_id;sensor_type;location;lat;lon;timestamp;pressure;altitude;pressure_sealevel;temperature;humidity
73453;BME280;61687;56.232;43.854;2023-09-12T00:02:25;101093.66;;;9.78;77.18
73453;BME280;61687;56.232;43.854;2023-09-12T00:04:51;101103.78;;;9.78;77.11
73453;BME280;61687;56.232;43.854;2023-09-12T00:07:17;101109.25;;;9.78;77.22
73453;BME280;61687;56.232;43.854;2023-09-12T00:09:43;101105.81;;;9.81;77.21
73453;BME280;61687;56.232;43.854;2023-09-12T00:12:12;101111.06;;;9.86;77.06
73453;BME280;61687;56.232;43.854;2023-09-12T00:14:38;101108.81;;;9.88;76.98
73453;BME280;61687;56.232;43.854;2023-09-12T00:17:04;101112.34;;;9.88;76.96
73453;BME280;61687;56.232;43.854;2023-09-12T00:19:30;101108.81;;;9.88;76.89
73453;BME280;61687;56.232;43.854;2023-09-12T00:21:56;101129.13;;;9.87;76.95
73453;BME280;61687;56.232;43.854;2023-09-12T00:24:22;101124.75;;;9.86;76.97
73453;BME280;61687;56.232;43.854;2023-09-12T00:26:48;101119.97;;;9.83;77.07
73453;BME280;61687;56.232;43.854;2023-09-12T00:29:13;101117.56;;;9.69;77.33
73453;BME280;61687;56.232;43.854;2023-09-12T00:31:40;101120.19;;;9.53;77.95
73453;BME280;61687;56.232;43.854;2023-09-12T00:34:05;101119.03;;;9.41;78.39
73453;BME280;61687;56.232;43.854;2023-09-12T00:36:31;101113.00;;;9.36;78.88
73453;BME280;61687;56.232;43.854;2023-09-12T00:38:58;101121.97;;;9.36;79.20
73453;BME280;61687;56.232;43.854;2023-09-12T00:41:24;101123.56;;;9.37;79.04
73453;BME280;61687;56.232;43.854;2023-09-12T00:43:50;101127.00;;;9.34;78.90
73453;BME280;61687;56.232;43.854;2023-09-12T00:46:18;101124.13;;;9.30;78.89
73453;BME280;61687;56.232;43.854;2023-09-12T00:48:45;101119.00;;;9.29;78.92
73453;BME280;61687;56.232;43.854;2023-09-12T00:51:14;101115.91;;;9.30;79.06
73453;BME280;61687;56.232;43.854;2023-09-12T00:53:41;101131.19;;;9.31;78.83
73453;BME280;61687;56.232;43.854;2023-09-12T00:56:08;101130.88;;;9.33;78.59
73453;BME280;61687;56.232;43.854;2023-09-12T00:58:34;101133.59;;;9.33;78.44
73453;BME280;61687;56.232;43.854;2023-09-12T01:01:00;101125.25;;;9.29;78.40
73453;BME280;61687;56.232;43.854;2023-09-12T01:03:26;101128.00;;;9.29;78.27
73453;BME280;61687;56.232;43.854;2023-09-12T01:05:53;101134.97;;;9.27;78.09
73453;BME280;61687;56.232;43.854;2023-09-12T01:08:19;101135.66;;;9.24;78.16
73453;BME280;61687;56.232;43.854;2023-09-12T01:10:47;101144.78;;;9.28;78.02
73453;BME280;61687;56.232;43.854;2023-09-12T01:13:14;101143.16;;;9.27;78.00
73453;BME280;61687;56.232;43.854;2023-09-12T01:15:41;101139.63;;;9.26;77.96
73453;BME280;61687;56.232;43.854;2023-09-12T01:18:07;101149.78;;;9.26;77.88
73453;BME280;61687;56.232;43.854;2023-09-12T01:20:34;101143.38;;;9.22;77.91
73453;BME280;61687;56.232;43.854;2023-09-12T01:28:09;101151.78;;;9.16;78.01
73453;BME280;61687;56.232;43.854;2023-09-12T01:30:35;101147.00;;;9.13;78.22
73453;BME280;61687;56.232;43.854;2023-09-12T01:33:03;101146.53;;;9.11;78.11
73453;BME280;61687;56.232;43.854;2023-09-12T01:35:29;101156.66;;;9.11;78.21
73453;BME280;61687;56.232;43.854;2023-09-12T01:37:55;101158.59;;;9.10;78.06
73453;BME280;61687;56.232;43.854;2023-09-12T01:40:38;101162.34;;;9.06;77.89
73453;BME280;61687;56.232;43.854;2023-09-12T01:43:08;101164.97;;;9.02;77.86
73453;BME280;61687;56.232;43.854;2023-09-12T01:45:35;101166.28;;;8.96;77.94
73453;BME280;61687;56.232;43.854;2023-09-12T01:48:03;101168.91;;;8.92;77.75
73453;BME280;61687;56.232;43.854;2023-09-12T01:50:30;101166.97;;;8.93;77.93
73453;BME280;61687;56.232;43.854;2023-09-12T01:52:57;101158.09;;;8.96;77.80
73453;BME280;61687;56.232;43.854;2023-09-12T01:55:24;101163.56;;;8.96;77.70
73453;BME280;61687;56.232;43.854;2023-09-12T01:57:51;101171.75;;;8.96;77.72
73453;BME280;61687;56.232;43.854;2023-09-12T02:00:21;101165.81;;;8.94;77.66
73453;BME280;61687;56.232;43.854;2023-09-12T02:02:48;101171.50;;;8.88;77.49
73453;BME280;61687;56.232;43.854;2023-09-12T02:05:19;101174.25;;;8.88;77.73
73453;BME280;61687;56.232;43.854;2023-09-12T02:07:46;101174.25;;;8.88;77.78
73453;BME280;61687;56.232;43.854;2023-09-12T02:10:13;101181.16;;;8.86;77.57
73453;BME280;61687;56.232;43.854;2023-09-12T02:12:39;101180.38;;;8.85;77.54
73453;BME280;61687;56.232;43.854;2023-09-12T02:15:07;101186.03;;;8.80;77.66
73453;BME280;61687;56.232;43.854;2023-09-12T02:17:34;101189.88;;;8.79;77.70
73453;BME280;61687;56.232;43.854;2023-09-12T02:20:20;101192.81;;;8.74;77.66
73453;BME280;61687;56.232;43.854;2023-09-12T02:22:46;101192.72;;;8.70;77.75
73453;BME280;61687;56.232;43.854;2023-09-12T02:25:12;101202.38;;;8.68;77.61
73453;BME280;61687;56.232;43.854;2023-09-12T02:27:39;101207.38;;;8.66;77.62
73453;BME280;61687;56.232;43.854;2023-09-12T02:30:05;101207.69;;;8.64;77.65
73453;BME280;61687;56.232;43.854;2023-09-12T02:32:34;101210.75;;;8.63;77.71
73453;BME280;61687;56.232;43.854;2023-09-12T02:35:00;101219.44;;;8.65;77.51
73453;BME280;61687;56.232;43.854;2023-09-12T02:37:26;101220.88;;;8.62;77.60
73453;BME280;61687;56.232;43.854;2023-09-12T02:39:52;101216.91;;;8.59;77.59
73453;BME280;61687;56.232;43.854;2023-09-12T02:42:18;101223.00;;;8.56;77.61
73453;BME280;61687;56.232;43.854;2023-09-12T02:44:44;101216.59;;;8.52;77.66
73453;BME280;61687;56.232;43.854;2023-09-12T02:47:10;101217.41;;;8.53;77.74
73453;BME280;61687;56.232;43.854;2023-09-12T02:49:36;101224.94;;;8.56;77.72
73453;BME280;61687;56.232;43.854;2023-09-12T02:52:02;101222.38;;;8.59;77.46
73453;BME280;61687;56.232;43.854;2023-09-12T02:54:28;101223.97;;;8.61;77.35
73453;BME280;61687;56.232;43.854;2023-09-12T02:56:54;101237.63;;;8.61;77.28
73453;BME280;61687;56.232;43.854;2023-09-12T02:59:21;101228.63;;;8.60;77.28
73453;BME280;61687;56.232;43.854;2023-09-12T03:01:46;101234.41;;;8.58;77.38
73453;BME280;61687;56.232;43.854;2023-09-12T03:04:12;101238.75;;;8.59;77.53
73453;BME280;61687;56.232;43.854;2023-09-12T03:06:38;101236.03;;;8.59;77.28
73453;BME280;61687;56.232;43.854;2023-09-12T03:09:05;101247.28;;;8.58;77.40
73453;BME280;61687;56.232;43.854;2023-09-12T03:11:32;101246.47;;;8.57;77.34
73453;BME280;61687;56.232;43.854;2023-09-12T03:13:58;101251.91;;;8.57;77.38
73453;BME280;61687;56.232;43.854;2023-09-12T03:16:23;101248.88;;;8.59;77.37
73453;BME280;61687;56.232;43.854;2023-09-12T03:18:50;101253.16;;;8.69;77.49
73453;BME280;61687;56.232;43.854;2023-09-12T03:21:16;101254.22;;;8.77;77.22
73453;BME280;61687;56.232;43.854;2023-09-12T03:23:42;101254.50;;;8.84;77.27
73453;BME280;61687;56.232;43.854;2023-09-12T03:26:08;101257.63;;;8.95;77.20
73453;BME280;61687;56.232;43.854;2023-09-12T03:28:35;101254.16;;;9.07;77.03
73453;BME280;61687;56.232;43.854;2023-09-12T03:31:12;101256.97;;;9.19;77.13
73453;BME280;61687;56.232;43.854;2023-09-12T03:33:40;101266.50;;;9.34;76.76
73453;BME280;61687;56.232;43.854;2023-09-12T03:36:07;101259.97;;;9.48;76.71
73453;BME280;61687;56.232;43.854;2023-09-12T03:38:34;101269.78;;;9.61;76.55
73453;BME280;61687;56.232;43.854;2023-09-12T03:41:01;101265.50;;;9.72;76.36
73453;BME280;61687;56.232;43.854;2023-09-12T03:43:28;101262.13;;;9.88;76.31
73453;BME280;61687;56.232;43.854;2023-09-12T03:45:54;101266.94;;;10.03;76.05
73453;BME280;61687;56.232;43.854;2023-09-12T03:48:20;101268.88;;;10.15;75.92
73453;BME280;61687;56.232;43.854;2023-09-12T03:50:46;101272.91;;;10.18;75.92
73453;BME280;61687;56.232;43.854;2023-09-12T03:53:14;101278.69;;;10.16;76.02
73453;BME280;61687;56.232;43.854;2023-09-12T03:55:40;101279.97;;;10.19;76.37
73453;BME280;61687;56.232;43.854;2023-09-12T03:58:06;101281.78;;;10.27;76.34
73453;BME280;61687;56.232;43.854;2023-09-12T04:00:33;101293.47;;;10.37;76.40
73453;BME280;61687;56.232;43.854;2023-09-12T04:02:59;101287.78;;;10.42;76.40
73453;BME280;61687;56.232;43.854;2023-09-12T04:05:26;101285.25;;;10.49;76.53
73453;BME280;61687;56.232;43.854;2023-09-12T04:07:52;101292.22;;;10.59;76.47
73453;BME280;61687;56.232;43.854;2023-09-12T04:10:20;101289.81;;;10.70;76.32
73453;BME280;61687;56.232;43.854;2023-09-12T04:12:46;101288.66;;;10.83;75.95
73453;BME280;61687;56.232;43.854;2023-09-12T04:15:12;101297.78;;;11.00;76.01
73453;BME280;61687;56.232;43.854;2023-09-12T04:17:39;101301.41;;;11.16;75.74
73453;BME280;61687;56.232;43.854;2023-09-12T04:20:05;101295.88;;;11.29;75.54
73453;BME280;61687;56.232;43.854;2023-09-12T04:22:31;101305.56;;;11.39;75.50
73453;BME280;61687;56.232;43.854;2023-09-12T04:24:57;101304.47;;;11.56;75.42
73453;BME280;61687;56.232;43.854;2023-09-12T04:27:23;101300.19;;;11.71;75.28
73453;BME280;61687;56.232;43.854;2023-09-12T04:29:49;101305.97;;;11.82;75.12
73453;BME280;61687;56.232;43.854;2023-09-12T04:32:15;101302.69;;;11.92;75.13
73453;BME280;61687;56.232;43.854;2023-09-12T04:34:42;101299.00;;;12.00;75.04
73453;BME280;61687;56.232;43.854;2023-09-12T04:37:09;101307.00;;;12.06;75.10
73453;BME280;61687;56.232;43.854;2023-09-12T04:39:34;101303.38;;;12.18;74.90
73453;BME280;61687;56.232;43.854;2023-09-12T04:42:01;101296.56;;;12.27;74.76
73453;BME280;61687;56.232;43.854;2023-09-12T04:44:26;101302.06;;;12.27;74.85
73453;BME280;61687;56.232;43.854;2023-09-12T04:46:52;101308.88;;;12.34;75.05
73453;BME280;61687;56.232;43.854;2023-09-12T04:49:18;101306.50;;;12.32;74.82
73453;BME280;61687;56.232;43.854;2023-09-12T04:51:44;101304.81;;;12.27;75.08
73453;BME280;61687;56.232;43.854;2023-09-12T04:54:10;101305.84;;;12.39;75.25
73453;BME280;61687;56.232;43.854;2023-09-12T04:56:36;101298.50;;;12.43;75.21
73453;BME280;61687;56.232;43.854;2023-09-12T04:59:01;101298.59;;;12.47;75.28
73453;BME280;61687;56.232;43.854;2023-09-12T05:01:27;101301.31;;;12.63;75.24
73453;BME280;61687;56.232;43.854;2023-09-12T05:03:53;101306.53;;;12.84;74.66
73453;BME280;61687;56.232;43.854;2023-09-12T05:06:19;101313.13;;;12.99;74.23
73453;BME280;61687;56.232;43.854;2023-09-12T05:08:44;101316.25;;;12.97;73.91
73453;BME280;61687;56.232;43.854;2023-09-12T05:11:10;101312.84;;;12.84;74.17
73453;BME280;61687;56.232;43.854;2023-09-12T05:13:36;101311.88;;;12.60;74.71
73453;BME280;61687;56.232;43.854;2023-09-12T05:16:02;101315.00;;;12.43;75.47
73453;BME280;61687;56.232;43.854;2023-09-12T05:18:28;101312.25;;;12.59;75.36
73453;BME280;61687;56.232;43.854;2023-09-12T05:20:54;101316.66;;;12.80;74.93
73453;BME280;61687;56.232;43.854;2023-09-12T05:23:20;101320.22;;;13.00;74.49
73453;BME280;61687;56.232;43.854;2023-09-12T05:25:46;101313.97;;;13.19;73.99
73453;BME280;61687;56.232;43.854;2023-09-12T05:28:11;101317.00;;;13.34;73.60
73453;BME280;61687;56.232;43.854;2023-09-12T05:30:44;101315.88;;;13.54;72.98
73453;BME280;61687;56.232;43.854;2023-09-12T05:33:10;101312.75;;;13.76;72.72
73453;BME280;61687;56.232;43.854;2023-09-12T05:35:36;101321.00;;;13.95;72.36
73453;BME280;61687;56.232;43.854;2023-09-12T05:38:03;101318.53;;;14.13;71.98
73453;BME280;61687;56.232;43.854;2023-09-12T05:40:29;101315.31;;;14.31;71.63
73453;BME280;61687;56.232;43.854;2023-09-12T05:42:55;101316.41;;;14.50;71.50
73453;BME280;61687;56.232;43.854;2023-09-12T05:45:21;101324.50;;;14.66;71.17
73453;BME280;61687;56.232;43.854;2023-09-12T05:47:47;101324.72;;;14.77;70.98
73453;BME280;61687;56.232;43.854;2023-09-12T05:50:14;101325.94;;;14.79;70.93
73453;BME280;61687;56.232;43.854;2023-09-12T05:52:40;101329.88;;;14.78;70.94
73453;BME280;61687;56.232;43.854;2023-09-12T05:55:08;101327.41;;;14.73;70.92
73453;BME280;61687;56.232;43.854;2023-09-12T05:57:34;101338.31;;;14.66;71.04
73453;BME280;61687;56.232;43.854;2023-09-12T06:00:00;101338.31;;;14.66;71.10
73453;BME280;61687;56.232;43.854;2023-09-12T06:02:29;101334.31;;;14.63;71.14
73453;BME280;61687;56.232;43.854;2023-09-12T06:04:56;101335.44;;;14.58;70.95
73453;BME280;61687;56.232;43.854;2023-09-12T06:07:22;101330.69;;;14.55;71.16
73453;BME280;61687;56.232;43.854;2023-09-12T06:09:47;101335.69;;;14.50;71.15
73453;BME280;61687;56.232;43.854;2023-09-12T06:12:13;101339.94;;;14.43;71.31
73453;BME280;61687;56.232;43.854;2023-09-12T06:14:39;101335.69;;;14.26;71.66
73453;BME280;61687;56.232;43.854;2023-09-12T06:17:05;101342.13;;;14.11;72.23
73453;BME280;61687;56.232;43.854;2023-09-12T06:19:31;101344.25;;;13.98;72.64
73453;BME280;61687;56.232;43.854;2023-09-12T06:21:56;101343.78;;;13.92;72.89
73453;BME280;61687;56.232;43.854;2023-09-12T06:24:24;101349.63;;;13.91;73.16
73453;BME280;61687;56.232;43.854;2023-09-12T06:26:49;101350.50;;;13.95;73.39
73453;BME280;61687;56.232;43.854;2023-09-12T06:29:15;101353.41;;;14.02;73.38
73453;BME280;61687;56.232;43.854;2023-09-12T06:31:42;101359.91;;;14.13;73.23
73453;BME280;61687;56.232;43.854;2023-09-12T06:34:08;101357.75;;;14.26;73.18
73453;BME280;61687;56.232;43.854;2023-09-12T06:36:34;101357.16;;;14.37;72.86
73453;BME280;61687;56.232;43.854;2023-09-12T06:39:00;101353.34;;;14.45;72.78
73453;BME280;61687;56.232;43.854;2023-09-12T06:41:27;101357.09;;;14.56;72.53
73453;BME280;61687;56.232;43.854;2023-09-12T06:43:53;101354.44;;;14.64;72.23
73453;BME280;61687;56.232;43.854;2023-09-12T06:46:22;101351.34;;;14.69;72.19
73453;BME280;61687;56.232;43.854;2023-09-12T06:48:48;101357.03;;;14.76;71.99
73453;BME280;61687;56.232;43.854;2023-09-12T06:51:16;101357.47;;;14.78;71.75
73453;BME280;61687;56.232;43.854;2023-09-12T06:53:42;101361.41;;;14.81;71.81
73453;BME280;61687;56.232;43.854;2023-09-12T06:56:08;101364.19;;;14.57;72.30
73453;BME280;61687;56.232;43.854;2023-09-12T06:58:34;101357.44;;;14.31;73.44
73453;BME280;61687;56.232;43.854;2023-09-12T07:01:04;101364.25;;;14.38;73.04
73453;BME280;61687;56.232;43.854;2023-09-12T07:03:35;101364.13;;;14.54;72.76
73453;BME280;61687;56.232;43.854;2023-09-12T07:06:02;101366.75;;;14.70;72.24
73453;BME280;61687;56.232;43.854;2023-09-12T07:08:30;101370.19;;;14.86;71.99
73453;BME280;61687;56.232;43.854;2023-09-12T07:10:56;101365.00;;;15.08;71.83
73453;BME280;61687;56.232;43.854;2023-09-12T07:13:23;101369.63;;;15.31;71.33
73453;BME280;61687;56.232;43.854;2023-09-12T07:15:52;101369.56;;;15.58;71.02
73453;BME280;61687;56.232;43.854;2023-09-12T07:18:18;101363.97;;;15.85;70.26
73453;BME280;61687;56.232;43.854;2023-09-12T07:20:45;101370.44;;;15.96;69.54
73453;BME280;61687;56.232;43.854;2023-09-12T07:23:11;101376.72;;;15.93;69.27
73453;BME280;61687;56.232;43.854;2023-09-12T07:25:38;101375.50;;;15.91;68.85
73453;BME280;61687;56.232;43.854;2023-09-12T07:28:05;101375.34;;;15.76;69.22
73453;BME280;61687;56.232;43.854;2023-09-12T07:30:31;101376.50;;;15.75;69.50
73453;BME280;61687;56.232;43.854;2023-09-12T07:32:57;101377.28;;;15.76;69.70
73453;BME280;61687;56.232;43.854;2023-09-12T07:35:23;101369.56;;;15.58;69.62
73453;BME280;61687;56.232;43.854;2023-09-12T07:37:50;101373.19;;;15.62;69.78
73453;BME280;61687;56.232;43.854;2023-09-12T07:40:16;101375.28;;;15.72;69.60
73453;BME280;61687;56.232;43.854;2023-09-12T07:42:42;101372.63;;;15.83;69.39
73453;BME280;61687;56.232;43.854;2023-09-12T07:45:09;101371.50;;;15.88;69.34
73453;BME280;61687;56.232;43.854;2023-09-12T07:47:35;101370.94;;;16.06;69.04
73453;BME280;61687;56.232;43.854;2023-09-12T07:50:01;101366.75;;;16.23;68.62
73453;BME280;61687;56.232;43.854;2023-09-12T07:52:29;101371.97;;;16.31;68.43
73453;BME280;61687;56.232;43.854;2023-09-12T07:55:00;101376.53;;;16.54;68.01
73453;BME280;61687;56.232;43.854;2023-09-12T07:57:26;101369.22;;;16.84;67.16
73453;BME280;61687;56.232;43.854;2023-09-12T07:59:53;101371.66;;;16.93;66.43
73453;BME280;61687;56.232;43.854;2023-09-12T08:02:19;101373.47;;;16.67;65.71
73453;BME280;61687;56.232;43.854;2023-09-12T08:04:45;101368.16;;;16.47;65.57
73453;BME280;61687;56.232;43.854;2023-09-12T08:07:11;101374.94;;;16.53;65.57
73453;BME280;61687;56.232;43.854;2023-09-12T08:09:50;101373.81;;;16.62;65.57
73453;BME280;61687;56.232;43.854;2023-09-12T08:12:17;101368.41;;;16.80;65.23
73453;BME280;61687;56.232;43.854;2023-09-12T08:14:43;101370.91;;;16.96;64.82
73453;BME280;61687;56.232;43.854;2023-09-12T08:17:11;101365.75;;;16.98;64.58
73453;BME280;61687;56.232;43.854;2023-09-12T08:19:38;101369.38;;;17.02;64.29
73453;BME280;61687;56.232;43.854;2023-09-12T08:22:05;101369.50;;;17.24;64.82
73453;BME280;61687;56.232;43.854;2023-09-12T08:24:31;101373.97;;;17.50;63.51
73453;BME280;61687;56.232;43.854;2023-09-12T08:26:57;101366.94;;;17.74;62.00
73453;BME280;61687;56.232;43.854;2023-09-12T08:29:23;101359.03;;;17.84;60.86
73453;BME280;61687;56.232;43.854;2023-09-12T08:31:50;101359.06;;;17.95;60.69
73453;BME280;61687;56.232;43.854;2023-09-12T08:34:16;101353.19;;;18.07;60.47
73453;BME280;61687;56.232;43.854;2023-09-12T08:36:42;101361.84;;;17.87;58.52
73453;BME280;61687;56.232;43.854;2023-09-12T08:39:13;101358.69;;;18.00;59.44
73453;BME280;61687;56.232;43.854;2023-09-12T08:41:39;101359.13;;;18.13;59.32
73453;BME280;61687;56.232;43.854;2023-09-12T08:44:06;101351.22;;;18.26;59.41
73453;BME280;61687;56.232;43.854;2023-09-12T08:46:32;101355.59;;;18.38;59.26
73453;BME280;61687;56.232;43.854;2023-09-12T08:48:59;101349.22;;;18.44;58.31
73453;BME280;61687;56.232;43.854;2023-09-12T08:51:25;101356.38;;;18.53;58.11
73453;BME280;61687;56.232;43.854;2023-09-12T08:53:52;101354.41;;;18.61;57.11
73453;BME280;61687;56.232;43.854;2023-09-12T08:56:18;101355.19;;;18.65;56.65
73453;BME280;61687;56.232;43.854;2023-09-12T08:58:45;101352.41;;;18.65;56.73
73453;BME280;61687;56.232;43.854;2023-09-12T09:01:13;101348.84;;;18.68;56.89
73453;BME280;61687;56.232;43.854;2023-09-12T09:03:41;101350.81;;;18.74;55.69
73453;BME280;61687;56.232;43.854;2023-09-12T09:06:11;101353.59;;;18.78;55.76
73453;BME280;61687;56.232;43.854;2023-09-12T09:08:39;101349.59;;;18.83;55.15
73453;BME280;61687;56.232;43.854;2023-09-12T09:11:06;101345.63;;;18.87;54.71
73453;BME280;61687;56.232;43.854;2023-09-12T09:13:32;101343.25;;;18.90;54.58
73453;BME280;61687;56.232;43.854;2023-09-12T09:16:18;101343.63;;;18.95;53.79
73453;BME280;61687;56.232;43.854;2023-09-12T09:18:55;101344.84;;;19.01;53.94
73453;BME280;61687;56.232;43.854;2023-09-12T09:21:23;101339.66;;;19.04;53.44
73453;BME280;61687;56.232;43.854;2023-09-12T09:23:53;101342.84;;;19.09;53.44
73453;BME280;61687;56.232;43.854;2023-09-12T09:26:19;101345.97;;;19.22;53.13
73453;BME280;61687;56.232;43.854;2023-09-12T09:28:59;101351.50;;;19.33;52.53
73453;BME280;61687;56.232;43.854;2023-09-12T09:31:25;101342.75;;;19.27;51.48
73453;BME280;61687;56.232;43.854;2023-09-12T09:33:51;101345.56;;;19.24;51.32
73453;BME280;61687;56.232;43.854;2023-09-12T09:36:17;101342.81;;;19.24;51.77
73453;BME280;61687;56.232;43.854;2023-09-12T09:38:43;101346.75;;;19.30;51.79
73453;BME280;61687;56.232;43.854;2023-09-12T09:41:09;101348.31;;;19.31;51.83
73453;BME280;61687;56.232;43.854;2023-09-12T09:43:35;101345.94;;;19.29;51.38
73453;BME280;61687;56.232;43.854;2023-09-12T09:46:02;101346.34;;;19.32;51.33
73453;BME280;61687;56.232;43.854;2023-09-12T09:48:29;101341.56;;;19.32;51.33
73453;BME280;61687;56.232;43.854;2023-09-12T09:51:01;101351.50;;;19.29;50.85
73453;BME280;61687;56.232;43.854;2023-09-12T09:53:29;101345.97;;;19.22;50.55
73453;BME280;61687;56.232;43.854;2023-09-12T09:56:10;101349.94;;;19.17;50.01
73453;BME280;61687;56.232;43.854;2023-09-12T09:58:45;101349.59;;;19.12;49.61
73453;BME280;61687;56.232;43.854;2023-09-12T10:01:12;101350.41;;;19.05;50.17
73453;BME280;61687;56.232;43.854;2023-09-12T10:03:40;101355.13;;;19.15;50.91
73453;BME280;61687;56.232;43.854;2023-09-12T10:06:08;101356.69;;;19.24;50.24
73453;BME280;61687;56.232;43.854;2023-09-12T10:08:35;101349.53;;;19.26;50.01
73453;BME280;61687;56.232;43.854;2023-09-12T10:11:02;101348.31;;;19.31;49.52
73453;BME280;61687;56.232;43.854;2023-09-12T10:13:31;101353.03;;;19.45;49.43
73453;BME280;61687;56.232;43.854;2023-09-12T10:16:00;101358.53;;;19.56;49.15
73453;BME280;61687;56.232;43.854;2023-09-12T10:18:28;101354.53;;;19.64;48.89
73453;BME280;61687;56.232;43.854;2023-09-12T10:21:05;101356.09;;;19.72;48.17
73453;BME280;61687;56.232;43.854;2023-09-12T10:23:43;101358.44;;;19.78;48.25
73453;BME280;61687;56.232;43.854;2023-09-12T10:26:13;101355.94;;;20.01;47.89
73453;BME280;61687;56.232;43.854;2023-09-12T10:28:41;101351.09;;;20.16;48.03
73453;BME280;61687;56.232;43.854;2023-09-12T10:31:08;101356.66;;;20.13;47.99
73453;BME280;61687;56.232;43.854;2023-09-12T10:33:35;101351.91;;;20.10;48.18
73453;BME280;61687;56.232;43.854;2023-09-12T10:36:03;101348.75;;;20.08;47.59
73453;BME280;61687;56.232;43.854;2023-09-12T10:38:32;101351.09;;;20.13;48.60
73453;BME280;61687;56.232;43.854;2023-09-12T10:41:00;101348.69;;;20.19;47.84
73453;BME280;61687;56.232;43.854;2023-09-12T10:43:26;101346.59;;;20.26;47.65
73453;BME280;61687;56.232;43.854;2023-09-12T10:45:54;101343.81;;;20.30;47.77
73453;BME280;61687;56.232;43.854;2023-09-12T10:48:20;101342.59;;;20.35;48.01
73453;BME280;61687;56.232;43.854;2023-09-12T10:50:47;101347.31;;;20.38;48.18
73453;BME280;61687;56.232;43.854;2023-09-12T10:53:15;101344.44;;;20.52;47.94
73453;BME280;61687;56.232;43.854;2023-09-12T10:55:41;101337.84;;;20.73;47.79
73453;BME280;61687;56.232;43.854;2023-09-12T10:58:09;101347.75;;;20.82;47.81
73453;BME280;61687;56.232;43.854;2023-09-12T11:00:36;101350.47;;;20.89;46.39
73453;BME280;61687;56.232;43.854;2023-09-12T11:05:56;101343.44;;;21.47;46.18
73453;BME280;61687;56.232;43.854;2023-09-12T11:08:22;101339.47;;;21.79;45.87
73453;BME280;61687;56.232;43.854;2023-09-12T11:11:18;101338.44;;;22.20;45.87
73453;BME280;61687;56.232;43.854;2023-09-12T11:14:00;101343.66;;;22.42;44.98
73453;BME280;61687;56.232;43.854;2023-09-12T11:16:28;101329.81;;;22.58;43.88
73453;BME280;61687;56.232;43.854;2023-09-12T11:19:13;101335.28;;;22.66;44.02
73453;BME280;61687;56.232;43.854;2023-09-12T11:21:42;101339.78;;;22.59;44.22
73453;BME280;61687;56.232;43.854;2023-09-12T11:24:08;101339.66;;;22.43;43.22
73453;BME280;61687;56.232;43.854;2023-09-12T11:26:34;101332.34;;;22.25;43.96
73453;BME280;61687;56.232;43.854;2023-09-12T11:29:27;101330.41;;;21.98;43.91
73453;BME280;61687;56.232;43.854;2023-09-12T11:31:56;101343.97;;;21.96;44.83
73453;BME280;61687;56.232;43.854;2023-09-12T11:34:26;101337.59;;;21.96;44.09
73453;BME280;61687;56.232;43.854;2023-09-12T11:36:56;101338.69;;;22.02;44.45
73453;BME280;61687;56.232;43.854;2023-09-12T11:39:27;101333.44;;;22.08;43.84
73453;BME280;61687;56.232;43.854;2023-09-12T11:41:56;101332.19;;;22.12;43.84
73453;BME280;61687;56.232;43.854;2023-09-12T11:44:22;101331.69;;;22.18;43.99
73453;BME280;61687;56.232;43.854;2023-09-12T11:46:49;101342.44;;;22.19;43.36
73453;BME280;61687;56.232;43.854;2023-09-12T11:49:18;101343.16;;;22.23;43.46
73453;BME280;61687;56.232;43.854;2023-09-12T11:51:50;101342.25;;;22.30;43.34
73453;BME280;61687;56.232;43.854;2023-09-12T11:54:25;101334.97;;;22.36;42.10
73453;BME280;61687;56.232;43.854;2023-09-12T11:56:52;101338.84;;;22.42;43.06
73453;BME280;61687;56.232;43.854;2023-09-12T11:59:29;101339.97;;;22.49;43.49
73453;BME280;61687;56.232;43.854;2023-09-12T12:01:55;101319.59;;;22.52;42.41
73453;BME280;61687;56.232;43.854;2023-09-12T12:04:24;101327.88;;;22.32;42.64
73453;BME280;61687;56.232;43.854;2023-09-12T12:06:52;101330.59;;;22.35;42.39
73453;BME280;61687;56.232;43.854;2023-09-12T12:09:18;101321.69;;;22.68;42.21
73453;BME280;61687;56.232;43.854;2023-09-12T12:11:46;101320.13;;;22.87;41.39
73453;BME280;61687;56.232;43.854;2023-09-12T12:14:16;101325.66;;;22.91;41.07
73453;BME280;61687;56.232;43.854;2023-09-12T12:16:43;101322.00;;;22.94;40.18
73453;BME280;61687;56.232;43.854;2023-09-12T12:19:10;101325.59;;;22.94;42.07
73453;BME280;61687;56.232;43.854;2023-09-12T12:21:38;101326.81;;;23.13;41.96
73453;BME280;61687;56.232;43.854;2023-09-12T12:24:05;101319.50;;;22.99;41.54
73453;BME280;61687;56.232;43.854;2023-09-12T12:26:33;101328.94;;;22.85;42.43
73453;BME280;61687;56.232;43.854;2023-09-12T12:29:03;101328.78;;;22.72;42.13
73453;BME280;61687;56.232;43.854;2023-09-12T12:31:30;101325.81;;;22.59;42.87
73453;BME280;61687;56.232;43.854;2023-09-12T12:33:56;101338.50;;;22.40;43.49
73453;BME280;61687;56.232;43.854;2023-09-12T12:36:23;101332.84;;;22.20;43.21
73453;BME280;61687;56.232;43.854;2023-09-12T12:38:50;101334.25;;;22.08;42.65
73453;BME280;61687;56.232;43.854;2023-09-12T12:41:21;101329.75;;;21.87;43.58
73453;BME280;61687;56.232;43.854;2023-09-12T12:43:50;101325.94;;;21.73;44.04
73453;BME280;61687;56.232;43.854;2023-09-12T12:46:20;101335.91;;;22.02;43.66
73453;BME280;61687;56.232;43.854;2023-09-12T12:48:49;101320.59;;;22.62;42.95
73453;BME280;61687;56.232;43.854;2023-09-12T12:51:20;101326.56;;;23.44;41.26
73453;BME280;61687;56.232;43.854;2023-09-12T12:53:52;101334.19;;;23.44;39.99